createdAt,value
2019-01-26T00:01:08.110Z,35.60
2019-01-26T00:04:15.726Z,35.50
2019-01-26T00:07:38.471Z,37.20
2019-01-26T00:10:34.437Z,38.57
2019-01-26T00:13:51.725Z,37.50
2019-01-26T00:16:40.250Z,39.17
2019-01-26T00:19:37.408Z,42.27
2019-01-26T00:22:22.699Z,45.70
2019-01-26T00:29:08.159Z,46.60
2019-01-26T00:32:26.003Z,48.07
2019-01-26T00:35:36.015Z,50.60
2019-01-26T00:39:23.696Z,44.10
2019-01-26T00:45:52.907Z,47.37
2019-01-26T00:49:13.973Z,49.27
2019-01-26T00:56:56.573Z,47.53
2019-01-26T01:03:01.277Z,47.17
2019-01-26T01:06:20.517Z,49.83
2019-01-26T01:17:13.270Z,49.17
2019-01-26T01:20:31.865Z,51.10
2019-01-26T01:23:59.412Z,49.67
2019-01-26T01:27:41.414Z,49.30
2019-01-26T01:34:27.206Z,48.80
2019-01-26T01:37:43.129Z,47.40
2019-01-26T01:40:58.431Z,49.07
2019-01-26T01:43:49.464Z,52.97
2019-01-26T01:47:22.780Z,50.67
2019-01-26T01:50:41.702Z,47.57
2019-01-26T01:53:42.639Z,50.50
2019-01-26T01:56:15.160Z,46.83
2019-01-26T01:59:15.836Z,48.97
2019-01-26T02:01:53.055Z,51.77
2019-01-26T02:04:47.412Z,50.60
2019-01-26T02:10:56.530Z,54.97
2019-01-26T02:13:41.303Z,52.83
2019-01-26T02:19:49.913Z,56.80
2019-01-26T02:23:05.535Z,55.57
2019-01-26T02:26:08.412Z,55.27
2019-01-26T02:28:51.460Z,54.13
2019-01-26T02:31:35.439Z,55.87
2019-01-26T02:38:14.673Z,55.53
2019-01-26T02:40:48.112Z,58.50
2019-01-26T02:47:48.597Z,60.17
2019-01-26T02:54:07.418Z,59.90
2019-01-26T02:57:22.632Z,55.63
2019-01-26T03:00:34.926Z,55.67
2019-01-26T03:03:29.691Z,54.13
2019-01-26T03:06:09.862Z,56.57
2019-01-26T03:09:06.842Z,51.83
2019-01-26T03:14:59.785Z,58.20
2019-01-26T03:18:01.842Z,55.70
2019-01-26T03:20:40.398Z,60.80
2019-01-26T03:26:24.809Z,56.60
2019-01-26T03:29:18.578Z,59.67
2019-01-26T03:32:16.244Z,56.90
2019-01-26T03:35:11.180Z,55.23
2019-01-26T03:40:50.734Z,57.40
2019-01-26T03:43:51.185Z,56.43
2019-01-26T03:46:54.850Z,58.30
2019-01-26T03:50:07.473Z,61.13
2019-01-26T03:53:36.618Z,57.77
2019-01-26T03:56:45.833Z,57.30
2019-01-26T04:03:11.958Z,60.50
2019-01-26T04:05:56.810Z,57.23
2019-01-26T04:08:36.099Z,54.20
2019-01-26T04:11:17.670Z,52.57
2019-01-26T04:13:55.720Z,55.50
2019-01-26T04:16:44.557Z,55.97
2019-01-26T04:19:28.735Z,58.40
2019-01-26T04:25:55.124Z,58.30
2019-01-26T04:29:22.644Z,53.90
2019-01-26T04:32:13.672Z,56.90
2019-01-26T04:35:54.277Z,54.07
2019-01-26T04:38:51.680Z,65.35
2019-01-26T04:41:51.151Z,56.30
2019-01-26T04:45:10.256Z,56.77
2019-01-26T04:52:18.078Z,61.50
2019-01-26T04:54:20.938Z,67.70
2019-01-26T04:57:32.145Z,62.20
2019-01-26T05:00:16.375Z,56.00
2019-01-26T05:03:15.945Z,60.80
2019-01-26T05:06:07.697Z,58.37
2019-01-26T05:12:16.623Z,55.70
2019-01-26T05:15:41.953Z,58.77
2019-01-26T05:19:10.251Z,54.63
2019-01-26T05:22:06.200Z,59.10
2019-01-26T05:28:11.584Z,54.63
2019-01-26T05:37:53.192Z,61.40
2019-01-26T05:47:47.632Z,53.50
2019-01-26T05:50:48.852Z,55.50
2019-01-26T05:54:16.853Z,61.20
2019-01-26T05:57:57.813Z,52.67
2019-01-26T06:08:42.314Z,55.97
2019-01-26T06:11:21.507Z,51.10
2019-01-26T06:14:05.194Z,59.70
2019-01-26T06:17:08.797Z,55.37
2019-01-26T06:27:44.033Z,56.87
2019-01-26T06:34:28.549Z,53.33
2019-01-26T06:41:02.010Z,52.20
2019-01-26T06:47:13.122Z,56.27
2019-01-26T06:50:31.303Z,49.87
2019-01-26T06:54:08.523Z,54.90
2019-01-26T07:05:00.544Z,49.57
2019-01-26T07:11:46.586Z,49.43
2019-01-26T07:18:47.207Z,48.33
2019-01-26T07:21:59.025Z,49.43
2019-01-26T07:29:09.762Z,55.03
2019-01-26T07:36:06.801Z,46.10
2019-01-26T07:39:29.124Z,47.30
2019-01-26T07:46:11.332Z,44.77
2019-01-26T07:49:51.980Z,43.53
2019-01-26T07:53:08.526Z,48.40
2019-01-26T07:56:01.488Z,43.77
2019-01-26T07:59:00.108Z,44.50
2019-01-26T08:02:09.253Z,41.40
2019-01-26T08:05:26.765Z,43.00
2019-01-26T08:08:41.984Z,40.10
2019-01-26T08:16:11.355Z,39.80
2019-01-26T08:19:29.117Z,42.10
2019-01-26T08:22:46.158Z,43.17
2019-01-26T08:26:05.591Z,39.50
2019-01-26T08:29:20.154Z,49.27
2019-01-26T08:32:38.432Z,42.83
2019-01-26T08:36:20.597Z,41.27
2019-01-26T08:39:40.874Z,41.60
2019-01-26T08:43:18.839Z,44.10
2019-01-26T08:46:55.536Z,44.60
2019-01-26T08:57:04.231Z,40.57
2019-01-26T09:01:47.913Z,45.27
2019-01-26T09:08:14.757Z,42.30
2019-01-26T09:11:15.301Z,42.03
2019-01-26T09:14:31.077Z,43.20
2019-01-26T09:17:17.425Z,44.10
2019-01-26T09:22:03.219Z,44.73
2019-01-26T09:26:14.650Z,40.50
2019-01-26T09:29:37.583Z,36.10
2019-01-26T09:33:20.895Z,48.37
2019-01-26T09:36:57.678Z,40.00
2019-01-26T09:47:58.859Z,40.57
2019-01-26T09:52:23.369Z,34.90
2019-01-26T09:56:05.629Z,39.53
2019-01-26T10:03:51.083Z,36.57
2019-01-26T10:12:29.415Z,33.73
2019-01-26T10:18:53.559Z,32.70
2019-01-26T10:22:03.761Z,39.65
2019-01-26T10:25:22.363Z,33.47
2019-01-26T10:28:51.698Z,33.60
2019-01-26T10:46:58.534Z,34.70
2019-01-26T10:50:28.580Z,33.10
2019-01-26T10:54:16.911Z,31.03
2019-01-26T11:10:26.554Z,37.20
2019-01-26T11:17:56.258Z,38.02
2019-01-26T11:21:28.818Z,29.37
2019-01-26T11:24:58.688Z,30.27
2019-01-26T11:44:24.654Z,30.37
2019-01-26T12:03:47.009Z,25.27
2019-01-26T12:07:00.804Z,24.27
2019-01-26T12:47:09.561Z,17.73
2019-01-26T12:50:37.915Z,17.50
2019-01-26T12:54:26.307Z,18.20
2019-01-26T12:57:49.497Z,17.90
2019-01-26T13:01:10.320Z,15.17
2019-01-26T13:04:23.609Z,14.70
2019-01-26T13:07:57.938Z,15.93
2019-01-26T13:23:14.203Z,14.23
2019-01-26T13:26:40.791Z,13.38
2019-01-26T13:33:39.074Z,13.73
2019-01-26T13:36:50.203Z,14.67
2019-01-26T13:40:29.573Z,12.80
2019-01-26T13:43:39.832Z,16.40
2019-01-26T13:46:51.079Z,16.60
2019-01-26T13:50:12.700Z,14.83
2019-01-26T13:53:29.796Z,15.17
2019-01-26T13:56:36.393Z,16.42
2019-01-26T14:00:14.014Z,13.30
2019-01-26T14:03:23.402Z,15.20
2019-01-26T14:06:49.150Z,13.90
2019-01-26T14:10:09.324Z,12.70
2019-01-26T14:13:34.897Z,12.50
2019-01-26T14:16:51.471Z,13.60
2019-01-26T14:20:09.537Z,11.80
2019-01-26T14:33:43.777Z,13.10
2019-01-26T14:37:07.511Z,11.50
2019-01-26T14:44:06.262Z,11.53
2019-01-26T14:51:04.830Z,12.33
2019-01-26T14:54:52.736Z,11.77
2019-01-26T15:13:03.944Z,13.07
2019-01-26T15:43:18.212Z,10.80
2019-01-26T16:06:49.486Z,10.90
2019-01-26T16:09:53.887Z,9.67
2019-01-26T16:21:22.954Z,13.35
2019-01-26T16:28:47.531Z,9.23
2019-01-26T16:40:18.963Z,9.30
2019-01-26T16:47:48.477Z,10.63
2019-01-26T16:55:57.589Z,9.90
2019-01-26T17:03:11.598Z,9.87
2019-01-26T17:23:26.191Z,16.43
2019-01-26T17:27:13.949Z,13.77
2019-01-26T17:30:40.832Z,14.50
2019-01-26T17:33:42.032Z,15.23
2019-01-26T17:45:55.722Z,13.53
2019-01-26T17:52:57.533Z,11.97
2019-01-26T18:08:51.456Z,12.23
2019-01-26T18:12:39.489Z,12.90
2019-01-26T18:16:43.360Z,13.68
2019-01-26T18:19:46.027Z,11.27
2019-01-26T18:23:10.704Z,11.60
2019-01-26T18:26:00.826Z,11.23
2019-01-26T18:29:13.878Z,14.55
2019-01-26T18:32:51.983Z,12.97
2019-01-26T18:36:29.201Z,12.10
2019-01-26T18:43:46.480Z,14.07
2019-01-26T18:47:12.262Z,13.00
2019-01-26T18:50:58.398Z,13.40
2019-01-26T18:54:37.303Z,13.60
2019-01-26T18:58:11.465Z,12.47
2019-01-26T19:05:36.656Z,11.10
2019-01-26T19:24:30.846Z,10.20
2019-01-26T19:27:49.951Z,10.83
2019-01-26T19:44:02.431Z,9.27
2019-01-26T19:47:16.329Z,11.43
2019-01-26T19:53:40.773Z,8.93
2019-01-26T19:56:43.567Z,8.90
2019-01-26T20:00:30.620Z,9.57
2019-01-26T20:16:36.528Z,9.43
2019-01-26T20:20:11.304Z,8.93
2019-01-26T20:27:32.282Z,9.70
2019-01-26T20:31:13.081Z,10.10
2019-01-26T20:34:34.321Z,11.93
2019-01-26T20:37:56.588Z,9.80
2019-01-26T20:41:08.320Z,8.57
2019-01-26T20:44:20.463Z,7.97
2019-01-26T20:47:45.264Z,8.17
2019-01-26T20:54:37.467Z,10.30
2019-01-26T20:58:22.422Z,10.10
2019-01-26T21:02:01.721Z,8.08
2019-01-26T21:09:12.568Z,7.70
2019-01-26T21:12:41.440Z,7.37
2019-01-26T21:16:04.463Z,9.07
2019-01-26T21:19:11.509Z,8.33
2019-01-26T21:22:37.733Z,7.10
2019-01-26T21:25:52.343Z,7.00
2019-01-26T21:29:13.901Z,6.70
2019-01-26T21:32:12.791Z,5.80
2019-01-26T21:50:14.072Z,6.20
2019-01-26T21:57:22.214Z,7.03
2019-01-26T22:04:38.548Z,6.77
2019-01-26T22:08:04.462Z,7.23
2019-01-26T22:11:16.784Z,8.33
2019-01-26T22:14:49.707Z,5.60
2019-01-26T22:17:48.619Z,5.90
2019-01-26T22:21:18.625Z,5.17
2019-01-26T22:24:18.888Z,4.60
2019-01-26T22:27:18.722Z,6.17
2019-01-26T22:30:54.784Z,4.53
2019-01-26T22:34:39.361Z,6.60
2019-01-26T22:37:47.920Z,4.90
2019-01-26T22:44:55.714Z,4.83
2019-01-26T22:51:24.603Z,3.50
2019-01-26T22:54:46.907Z,5.13
2019-01-26T23:05:55.273Z,3.90
2019-01-26T23:09:19.133Z,4.10
2019-01-26T23:12:30.617Z,4.87
2019-01-26T23:15:56.223Z,4.13
2019-01-26T23:19:19.992Z,4.00
2019-01-26T23:22:36.470Z,3.47
2019-01-26T23:30:35.200Z,3.97
2019-01-26T23:37:07.696Z,2.40
2019-01-26T23:40:17.812Z,4.83
2019-01-26T23:48:03.474Z,2.60
2019-01-26T23:51:33.483Z,2.83
2019-01-26T23:54:32.686Z,2.30
2019-01-26T23:58:17.413Z,3.10
